sensor_id;sensor_type;location;lat;lon;timestamp;P1;durP1;ratioP1;P2;durP2;ratioP2
56429;SDS011;42332;52.136;20.666;2023-05-27T00:01:19;9.32;;;2.05;;
56429;SDS011;42332;52.136;20.666;2023-05-27T00:03:45;11.68;;;2.30;;
56429;SDS011;42332;52.136;20.666;2023-05-27T00:06:11;17.95;;;2.60;;
56429;SDS011;42332;52.136;20.666;2023-05-27T00:08:36;15.57;;;2.53;;
56429;SDS011;42332;52.136;20.666;2023-05-27T00:11:01;7.38;;;1.95;;
56429;SDS011;42332;52.136;20.666;2023-05-27T00:13:27;9.68;;;2.33;;
56429;SDS011;42332;52.136;20.666;2023-05-27T00:15:52;10.95;;;2.90;;
56429;SDS011;42332;52.136;20.666;2023-05-27T00:18:17;10.70;;;2.65;;
56429;SDS011;42332;52.136;20.666;2023-05-27T00:20:43;11.70;;;2.63;;
56429;SDS011;42332;52.136;20.666;2023-05-27T00:23:08;12.80;;;2.72;;
56429;SDS011;42332;52.136;20.666;2023-05-27T00:25:34;11.73;;;2.67;;
56429;SDS011;42332;52.136;20.666;2023-05-27T00:27:59;15.35;;;2.40;;
56429;SDS011;42332;52.136;20.666;2023-05-27T00:30:25;11.27;;;2.55;;
56429;SDS011;42332;52.136;20.666;2023-05-27T00:32:50;11.07;;;2.70;;
56429;SDS011;42332;52.136;20.666;2023-05-27T00:35:16;7.60;;;2.53;;
56429;SDS011;42332;52.136;20.666;2023-05-27T00:37:41;16.92;;;2.95;;
56429;SDS011;42332;52.136;20.666;2023-05-27T00:40:08;17.75;;;2.97;;
56429;SDS011;42332;52.136;20.666;2023-05-27T00:42:35;11.80;;;2.88;;
56429;SDS011;42332;52.136;20.666;2023-05-27T00:45:02;16.05;;;2.80;;
56429;SDS011;42332;52.136;20.666;2023-05-27T00:47:28;8.85;;;2.25;;
56429;SDS011;42332;52.136;20.666;2023-05-27T00:49:55;17.00;;;2.50;;
56429;SDS011;42332;52.136;20.666;2023-05-27T00:52:21;15.98;;;3.05;;
56429;SDS011;42332;52.136;20.666;2023-05-27T00:54:46;7.75;;;1.90;;
56429;SDS011;42332;52.136;20.666;2023-05-27T00:57:12;14.20;;;2.75;;
56429;SDS011;42332;52.136;20.666;2023-05-27T00:59:37;12.82;;;3.05;;
56429;SDS011;42332;52.136;20.666;2023-05-27T01:02:03;16.23;;;3.33;;
56429;SDS011;42332;52.136;20.666;2023-05-27T01:04:28;14.65;;;2.38;;
56429;SDS011;42332;52.136;20.666;2023-05-27T01:09:55;10.68;;;2.20;;
56429;SDS011;42332;52.136;20.666;2023-05-27T01:15:16;11.93;;;2.55;;
56429;SDS011;42332;52.136;20.666;2023-05-27T01:17:42;9.50;;;2.65;;
56429;SDS011;42332;52.136;20.666;2023-05-27T01:20:10;17.60;;;2.67;;
56429;SDS011;42332;52.136;20.666;2023-05-27T01:22:36;16.88;;;2.95;;
56429;SDS011;42332;52.136;20.666;2023-05-27T01:25:02;9.77;;;2.60;;
56429;SDS011;42332;52.136;20.666;2023-05-27T01:27:28;11.10;;;2.45;;
56429;SDS011;42332;52.136;20.666;2023-05-27T01:29:53;15.05;;;3.17;;
56429;SDS011;42332;52.136;20.666;2023-05-27T01:32:31;16.73;;;2.78;;
56429;SDS011;42332;52.136;20.666;2023-05-27T01:37:33;11.18;;;2.50;;
56429;SDS011;42332;52.136;20.666;2023-05-27T01:40:01;9.60;;;2.25;;
56429;SDS011;42332;52.136;20.666;2023-05-27T01:42:31;13.43;;;2.50;;
56429;SDS011;42332;52.136;20.666;2023-05-27T01:44:57;21.33;;;2.72;;
56429;SDS011;42332;52.136;20.666;2023-05-27T01:47:25;12.15;;;2.75;;
56429;SDS011;42332;52.136;20.666;2023-05-27T01:49:50;18.33;;;2.63;;
56429;SDS011;42332;52.136;20.666;2023-05-27T01:52:16;13.13;;;2.95;;
56429;SDS011;42332;52.136;20.666;2023-05-27T01:54:41;13.68;;;2.55;;
56429;SDS011;42332;52.136;20.666;2023-05-27T01:57:06;11.13;;;2.75;;
56429;SDS011;42332;52.136;20.666;2023-05-27T01:59:32;9.90;;;3.25;;
56429;SDS011;42332;52.136;20.666;2023-05-27T02:01:57;9.25;;;2.38;;
56429;SDS011;42332;52.136;20.666;2023-05-27T02:04:22;9.95;;;2.65;;
56429;SDS011;42332;52.136;20.666;2023-05-27T02:06:48;14.63;;;2.58;;
56429;SDS011;42332;52.136;20.666;2023-05-27T02:09:13;12.50;;;2.97;;
56429;SDS011;42332;52.136;20.666;2023-05-27T02:17:14;13.85;;;3.20;;
56429;SDS011;42332;52.136;20.666;2023-05-27T02:19:40;13.88;;;2.70;;
56429;SDS011;42332;52.136;20.666;2023-05-27T02:22:05;15.00;;;3.22;;
56429;SDS011;42332;52.136;20.666;2023-05-27T02:24:31;12.52;;;2.85;;
56429;SDS011;42332;52.136;20.666;2023-05-27T02:26:56;12.65;;;2.80;;
56429;SDS011;42332;52.136;20.666;2023-05-27T02:29:22;12.50;;;2.42;;
56429;SDS011;42332;52.136;20.666;2023-05-27T02:31:47;9.00;;;2.55;;
56429;SDS011;42332;52.136;20.666;2023-05-27T02:34:12;10.13;;;2.88;;
56429;SDS011;42332;52.136;20.666;2023-05-27T02:36:38;14.18;;;3.03;;
56429;SDS011;42332;52.136;20.666;2023-05-27T02:39:04;13.93;;;2.85;;
56429;SDS011;42332;52.136;20.666;2023-05-27T02:41:29;14.52;;;2.75;;
56429;SDS011;42332;52.136;20.666;2023-05-27T02:43:54;12.55;;;2.78;;
56429;SDS011;42332;52.136;20.666;2023-05-27T02:46:20;10.25;;;2.55;;
56429;SDS011;42332;52.136;20.666;2023-05-27T02:48:46;11.23;;;2.50;;
56429;SDS011;42332;52.136;20.666;2023-05-27T02:51:11;18.55;;;2.90;;
56429;SDS011;42332;52.136;20.666;2023-05-27T02:53:37;17.10;;;2.92;;
56429;SDS011;42332;52.136;20.666;2023-05-27T02:56:02;9.90;;;2.80;;
56429;SDS011;42332;52.136;20.666;2023-05-27T02:58:28;13.23;;;3.13;;
56429;SDS011;42332;52.136;20.666;2023-05-27T03:00:53;7.88;;;2.42;;
56429;SDS011;42332;52.136;20.666;2023-05-27T03:03:19;15.00;;;2.85;;
56429;SDS011;42332;52.136;20.666;2023-05-27T03:05:44;17.10;;;3.33;;
56429;SDS011;42332;52.136;20.666;2023-05-27T03:08:10;16.08;;;3.72;;
56429;SDS011;42332;52.136;20.666;2023-05-27T03:10:35;12.52;;;2.92;;
56429;SDS011;42332;52.136;20.666;2023-05-27T03:13:00;18.98;;;3.17;;
56429;SDS011;42332;52.136;20.666;2023-05-27T03:15:26;12.00;;;2.83;;
56429;SDS011;42332;52.136;20.666;2023-05-27T03:17:54;17.13;;;3.25;;
56429;SDS011;42332;52.136;20.666;2023-05-27T03:20:20;18.55;;;2.83;;
56429;SDS011;42332;52.136;20.666;2023-05-27T03:22:45;8.88;;;3.15;;
56429;SDS011;42332;52.136;20.666;2023-05-27T03:25:11;13.25;;;3.08;;
56429;SDS011;42332;52.136;20.666;2023-05-27T03:27:37;23.15;;;3.42;;
56429;SDS011;42332;52.136;20.666;2023-05-27T03:30:03;21.38;;;4.00;;
56429;SDS011;42332;52.136;20.666;2023-05-27T03:32:29;17.88;;;3.47;;
56429;SDS011;42332;52.136;20.666;2023-05-27T03:34:55;15.80;;;3.15;;
56429;SDS011;42332;52.136;20.666;2023-05-27T03:42:49;12.23;;;3.38;;
56429;SDS011;42332;52.136;20.666;2023-05-27T03:45:14;18.85;;;2.90;;
56429;SDS011;42332;52.136;20.666;2023-05-27T03:47:40;16.42;;;3.42;;
56429;SDS011;42332;52.136;20.666;2023-05-27T03:50:05;13.13;;;3.15;;
56429;SDS011;42332;52.136;20.666;2023-05-27T03:52:31;18.50;;;3.25;;
56429;SDS011;42332;52.136;20.666;2023-05-27T03:54:56;18.67;;;3.22;;
56429;SDS011;42332;52.136;20.666;2023-05-27T03:57:21;18.05;;;3.55;;
56429;SDS011;42332;52.136;20.666;2023-05-27T03:59:47;9.75;;;2.60;;
56429;SDS011;42332;52.136;20.666;2023-05-27T04:02:12;16.75;;;4.00;;
56429;SDS011;42332;52.136;20.666;2023-05-27T04:04:37;20.05;;;3.42;;
56429;SDS011;42332;52.136;20.666;2023-05-27T04:07:03;13.30;;;3.22;;
56429;SDS011;42332;52.136;20.666;2023-05-27T04:09:28;11.90;;;3.45;;
56429;SDS011;42332;52.136;20.666;2023-05-27T04:11:54;14.45;;;3.22;;
56429;SDS011;42332;52.136;20.666;2023-05-27T04:14:19;10.05;;;2.83;;
56429;SDS011;42332;52.136;20.666;2023-05-27T04:16:45;7.32;;;2.65;;
56429;SDS011;42332;52.136;20.666;2023-05-27T04:19:10;10.88;;;2.97;;
56429;SDS011;42332;52.136;20.666;2023-05-27T04:21:35;15.40;;;3.72;;
56429;SDS011;42332;52.136;20.666;2023-05-27T04:24:02;15.32;;;2.72;;
56429;SDS011;42332;52.136;20.666;2023-05-27T04:26:28;12.38;;;2.92;;
56429;SDS011;42332;52.136;20.666;2023-05-27T04:28:53;19.92;;;3.55;;
56429;SDS011;42332;52.136;20.666;2023-05-27T04:31:18;17.73;;;3.17;;
56429;SDS011;42332;52.136;20.666;2023-05-27T04:33:44;11.63;;;3.33;;
56429;SDS011;42332;52.136;20.666;2023-05-27T04:36:10;10.45;;;3.00;;
56429;SDS011;42332;52.136;20.666;2023-05-27T04:38:36;20.50;;;3.28;;
56429;SDS011;42332;52.136;20.666;2023-05-27T04:41:01;14.43;;;2.90;;
56429;SDS011;42332;52.136;20.666;2023-05-27T04:43:27;14.52;;;2.63;;
56429;SDS011;42332;52.136;20.666;2023-05-27T04:45:54;13.75;;;3.10;;
56429;SDS011;42332;52.136;20.666;2023-05-27T04:48:21;19.95;;;3.25;;
56429;SDS011;42332;52.136;20.666;2023-05-27T04:50:48;18.27;;;2.78;;
56429;SDS011;42332;52.136;20.666;2023-05-27T04:53:13;11.00;;;3.13;;
56429;SDS011;42332;52.136;20.666;2023-05-27T04:55:40;13.43;;;2.53;;
56429;SDS011;42332;52.136;20.666;2023-05-27T04:58:06;14.85;;;3.15;;
56429;SDS011;42332;52.136;20.666;2023-05-27T05:00:32;15.18;;;3.40;;
56429;SDS011;42332;52.136;20.666;2023-05-27T05:03:03;14.00;;;3.05;;
56429;SDS011;42332;52.136;20.666;2023-05-27T05:05:29;11.07;;;2.60;;
56429;SDS011;42332;52.136;20.666;2023-05-27T05:07:54;13.30;;;3.05;;
56429;SDS011;42332;52.136;20.666;2023-05-27T05:10:19;9.65;;;2.60;;
56429;SDS011;42332;52.136;20.666;2023-05-27T05:12:45;13.50;;;2.88;;
56429;SDS011;42332;52.136;20.666;2023-05-27T05:15:10;22.83;;;2.97;;
56429;SDS011;42332;52.136;20.666;2023-05-27T05:17:36;12.38;;;3.10;;
56429;SDS011;42332;52.136;20.666;2023-05-27T05:20:01;8.25;;;2.53;;
56429;SDS011;42332;52.136;20.666;2023-05-27T05:22:28;10.80;;;2.63;;
56429;SDS011;42332;52.136;20.666;2023-05-27T05:24:54;12.00;;;2.30;;
56429;SDS011;42332;52.136;20.666;2023-05-27T05:27:19;12.63;;;2.63;;
56429;SDS011;42332;52.136;20.666;2023-05-27T05:29:44;16.00;;;2.53;;
56429;SDS011;42332;52.136;20.666;2023-05-27T05:32:10;12.20;;;2.65;;
56429;SDS011;42332;52.136;20.666;2023-05-27T05:34:36;12.38;;;2.92;;
56429;SDS011;42332;52.136;20.666;2023-05-27T05:37:02;11.57;;;2.40;;
56429;SDS011;42332;52.136;20.666;2023-05-27T05:39:28;9.82;;;2.67;;
56429;SDS011;42332;52.136;20.666;2023-05-27T05:41:53;13.13;;;2.83;;
56429;SDS011;42332;52.136;20.666;2023-05-27T05:44:19;12.45;;;3.15;;
56429;SDS011;42332;52.136;20.666;2023-05-27T05:46:44;10.77;;;3.13;;
56429;SDS011;42332;52.136;20.666;2023-05-27T05:49:09;10.98;;;2.30;;
56429;SDS011;42332;52.136;20.666;2023-05-27T05:51:35;13.77;;;2.78;;
56429;SDS011;42332;52.136;20.666;2023-05-27T05:54:00;10.00;;;2.80;;
56429;SDS011;42332;52.136;20.666;2023-05-27T05:56:26;8.38;;;2.53;;
56429;SDS011;42332;52.136;20.666;2023-05-27T05:58:51;16.25;;;2.88;;
56429;SDS011;42332;52.136;20.666;2023-05-27T06:01:17;10.05;;;2.50;;
56429;SDS011;42332;52.136;20.666;2023-05-27T06:03:42;12.10;;;2.33;;
56429;SDS011;42332;52.136;20.666;2023-05-27T06:06:08;10.38;;;2.40;;
56429;SDS011;42332;52.136;20.666;2023-05-27T06:08:34;11.18;;;2.95;;
56429;SDS011;42332;52.136;20.666;2023-05-27T06:10:59;10.63;;;2.28;;
56429;SDS011;42332;52.136;20.666;2023-05-27T06:13:24;9.85;;;2.40;;
56429;SDS011;42332;52.136;20.666;2023-05-27T06:15:50;14.07;;;2.17;;
56429;SDS011;42332;52.136;20.666;2023-05-27T06:18:15;16.05;;;2.70;;
56429;SDS011;42332;52.136;20.666;2023-05-27T06:20:41;11.23;;;2.80;;
56429;SDS011;42332;52.136;20.666;2023-05-27T06:23:06;14.15;;;2.88;;
56429;SDS011;42332;52.136;20.666;2023-05-27T06:25:32;9.10;;;2.83;;
56429;SDS011;42332;52.136;20.666;2023-05-27T06:27:57;15.32;;;4.25;;
56429;SDS011;42332;52.136;20.666;2023-05-27T06:30:22;11.43;;;2.45;;
56429;SDS011;42332;52.136;20.666;2023-05-27T06:32:48;11.20;;;2.67;;
56429;SDS011;42332;52.136;20.666;2023-05-27T06:35:13;9.98;;;2.33;;
56429;SDS011;42332;52.136;20.666;2023-05-27T06:37:38;18.83;;;2.85;;
56429;SDS011;42332;52.136;20.666;2023-05-27T06:40:04;9.32;;;2.20;;
56429;SDS011;42332;52.136;20.666;2023-05-27T06:42:30;9.57;;;2.47;;
56429;SDS011;42332;52.136;20.666;2023-05-27T06:44:55;13.18;;;2.50;;
56429;SDS011;42332;52.136;20.666;2023-05-27T06:47:20;10.82;;;2.58;;
56429;SDS011;42332;52.136;20.666;2023-05-27T06:49:46;13.10;;;2.92;;
56429;SDS011;42332;52.136;20.666;2023-05-27T06:52:11;11.55;;;2.67;;
56429;SDS011;42332;52.136;20.666;2023-05-27T06:54:37;8.02;;;2.25;;
56429;SDS011;42332;52.136;20.666;2023-05-27T06:57:02;11.50;;;2.38;;
56429;SDS011;42332;52.136;20.666;2023-05-27T06:59:28;9.60;;;2.45;;
56429;SDS011;42332;52.136;20.666;2023-05-27T07:01:54;15.98;;;2.65;;
56429;SDS011;42332;52.136;20.666;2023-05-27T07:04:21;12.57;;;2.38;;
56429;SDS011;42332;52.136;20.666;2023-05-27T07:06:46;9.13;;;1.95;;
56429;SDS011;42332;52.136;20.666;2023-05-27T07:09:12;6.65;;;1.77;;
56429;SDS011;42332;52.136;20.666;2023-05-27T07:11:38;9.48;;;2.08;;
56429;SDS011;42332;52.136;20.666;2023-05-27T07:14:04;7.93;;;2.33;;
56429;SDS011;42332;52.136;20.666;2023-05-27T07:16:29;9.40;;;2.58;;
56429;SDS011;42332;52.136;20.666;2023-05-27T07:18:55;5.38;;;1.90;;
56429;SDS011;42332;52.136;20.666;2023-05-27T07:21:20;5.90;;;1.90;;
56429;SDS011;42332;52.136;20.666;2023-05-27T07:23:45;9.65;;;2.03;;
56429;SDS011;42332;52.136;20.666;2023-05-27T07:26:11;9.43;;;1.77;;
56429;SDS011;42332;52.136;20.666;2023-05-27T07:28:36;8.18;;;1.92;;
56429;SDS011;42332;52.136;20.666;2023-05-27T07:31:02;3.78;;;1.40;;
56429;SDS011;42332;52.136;20.666;2023-05-27T07:33:28;10.20;;;2.00;;
56429;SDS011;42332;52.136;20.666;2023-05-27T07:35:53;5.90;;;1.48;;
56429;SDS011;42332;52.136;20.666;2023-05-27T07:38:18;9.20;;;2.13;;
56429;SDS011;42332;52.136;20.666;2023-05-27T07:40:44;5.25;;;1.85;;
56429;SDS011;42332;52.136;20.666;2023-05-27T07:43:09;9.65;;;1.60;;
56429;SDS011;42332;52.136;20.666;2023-05-27T07:45:35;4.10;;;1.48;;
56429;SDS011;42332;52.136;20.666;2023-05-27T07:48:00;6.18;;;1.50;;
56429;SDS011;42332;52.136;20.666;2023-05-27T07:50:26;5.70;;;2.03;;
56429;SDS011;42332;52.136;20.666;2023-05-27T07:52:51;7.35;;;1.42;;
56429;SDS011;42332;52.136;20.666;2023-05-27T07:55:16;7.18;;;1.60;;
56429;SDS011;42332;52.136;20.666;2023-05-27T07:57:43;4.45;;;1.27;;
56429;SDS011;42332;52.136;20.666;2023-05-27T08:00:08;6.55;;;1.73;;
56429;SDS011;42332;52.136;20.666;2023-05-27T08:02:34;8.02;;;1.55;;
56429;SDS011;42332;52.136;20.666;2023-05-27T08:05:00;8.57;;;1.38;;
56429;SDS011;42332;52.136;20.666;2023-05-27T08:07:25;6.07;;;1.33;;
56429;SDS011;42332;52.136;20.666;2023-05-27T08:09:50;6.00;;;1.38;;
56429;SDS011;42332;52.136;20.666;2023-05-27T08:12:16;4.03;;;1.40;;
56429;SDS011;42332;52.136;20.666;2023-05-27T08:14:42;6.15;;;1.35;;
56429;SDS011;42332;52.136;20.666;2023-05-27T08:17:07;5.50;;;1.35;;
56429;SDS011;42332;52.136;20.666;2023-05-27T08:19:32;11.90;;;1.20;;
56429;SDS011;42332;52.136;20.666;2023-05-27T08:21:58;4.57;;;1.35;;
56429;SDS011;42332;52.136;20.666;2023-05-27T08:24:24;6.47;;;1.15;;
56429;SDS011;42332;52.136;20.666;2023-05-27T08:26:49;3.75;;;1.20;;
56429;SDS011;42332;52.136;20.666;2023-05-27T08:29:15;6.53;;;1.10;;
56429;SDS011;42332;52.136;20.666;2023-05-27T08:31:40;6.60;;;1.17;;
56429;SDS011;42332;52.136;20.666;2023-05-27T08:34:06;8.18;;;1.40;;
56429;SDS011;42332;52.136;20.666;2023-05-27T08:36:31;5.32;;;1.10;;
56429;SDS011;42332;52.136;20.666;2023-05-27T08:38:57;5.40;;;1.58;;
56429;SDS011;42332;52.136;20.666;2023-05-27T08:41:23;8.77;;;1.38;;
56429;SDS011;42332;52.136;20.666;2023-05-27T08:43:51;3.88;;;1.20;;
56429;SDS011;42332;52.136;20.666;2023-05-27T08:46:16;5.30;;;1.23;;
56429;SDS011;42332;52.136;20.666;2023-05-27T08:48:42;8.23;;;1.40;;
56429;SDS011;42332;52.136;20.666;2023-05-27T08:51:08;6.65;;;1.42;;
56429;SDS011;42332;52.136;20.666;2023-05-27T08:53:34;3.80;;;1.20;;
56429;SDS011;42332;52.136;20.666;2023-05-27T08:56:00;7.00;;;1.13;;
56429;SDS011;42332;52.136;20.666;2023-05-27T08:58:27;3.70;;;1.00;;
56429;SDS011;42332;52.136;20.666;2023-05-27T09:00:52;3.45;;;1.10;;
56429;SDS011;42332;52.136;20.666;2023-05-27T09:03:18;4.18;;;1.40;;
56429;SDS011;42332;52.136;20.666;2023-05-27T09:05:44;5.85;;;1.23;;
56429;SDS011;42332;52.136;20.666;2023-05-27T09:08:09;8.93;;;1.10;;
56429;SDS011;42332;52.136;20.666;2023-05-27T09:10:41;6.28;;;1.23;;
56429;SDS011;42332;52.136;20.666;2023-05-27T09:13:07;6.47;;;1.10;;
56429;SDS011;42332;52.136;20.666;2023-05-27T09:15:33;9.93;;;1.38;;
56429;SDS011;42332;52.136;20.666;2023-05-27T09:18:00;2.25;;;1.08;;
56429;SDS011;42332;52.136;20.666;2023-05-27T09:20:29;4.60;;;1.10;;
56429;SDS011;42332;52.136;20.666;2023-05-27T09:22:59;6.13;;;1.20;;
56429;SDS011;42332;52.136;20.666;2023-05-27T09:25:26;2.95;;;0.98;;
56429;SDS011;42332;52.136;20.666;2023-05-27T09:27:53;4.72;;;1.02;;
56429;SDS011;42332;52.136;20.666;2023-05-27T09:30:19;2.17;;;0.95;;
56429;SDS011;42332;52.136;20.666;2023-05-27T09:32:45;5.85;;;1.15;;
56429;SDS011;42332;52.136;20.666;2023-05-27T09:35:11;2.83;;;1.00;;
56429;SDS011;42332;52.136;20.666;2023-05-27T09:37:37;5.78;;;1.10;;
56429;SDS011;42332;52.136;20.666;2023-05-27T09:42:48;5.20;;;0.90;;
56429;SDS011;42332;52.136;20.666;2023-05-27T09:45:18;3.55;;;1.20;;
56429;SDS011;42332;52.136;20.666;2023-05-27T09:47:48;4.82;;;1.20;;
56429;SDS011;42332;52.136;20.666;2023-05-27T09:50:14;2.80;;;0.90;;
56429;SDS011;42332;52.136;20.666;2023-05-27T09:52:40;7.03;;;1.50;;
56429;SDS011;42332;52.136;20.666;2023-05-27T09:55:09;2.90;;;0.75;;
56429;SDS011;42332;52.136;20.666;2023-05-27T09:57:36;3.25;;;1.10;;
56429;SDS011;42332;52.136;20.666;2023-05-27T10:00:04;2.67;;;0.90;;
56429;SDS011;42332;52.136;20.666;2023-05-27T10:02:36;3.70;;;1.00;;
56429;SDS011;42332;52.136;20.666;2023-05-27T10:05:02;5.25;;;1.20;;
56429;SDS011;42332;52.136;20.666;2023-05-27T10:07:30;2.78;;;0.90;;
56429;SDS011;42332;52.136;20.666;2023-05-27T10:09:56;4.45;;;1.15;;
56429;SDS011;42332;52.136;20.666;2023-05-27T10:12:21;11.50;;;1.30;;
56429;SDS011;42332;52.136;20.666;2023-05-27T10:14:47;4.93;;;1.10;;
56429;SDS011;42332;52.136;20.666;2023-05-27T10:17:12;4.15;;;0.98;;
56429;SDS011;42332;52.136;20.666;2023-05-27T10:19:48;14.10;;;1.10;;
56429;SDS011;42332;52.136;20.666;2023-05-27T10:22:14;4.40;;;1.05;;
56429;SDS011;42332;52.136;20.666;2023-05-27T10:24:39;4.35;;;0.85;;
56429;SDS011;42332;52.136;20.666;2023-05-27T10:27:05;8.00;;;0.98;;
56429;SDS011;42332;52.136;20.666;2023-05-27T10:29:35;4.28;;;1.00;;
56429;SDS011;42332;52.136;20.666;2023-05-27T10:32:04;2.50;;;0.90;;
56429;SDS011;42332;52.136;20.666;2023-05-27T10:34:36;4.75;;;2.45;;
56429;SDS011;42332;52.136;20.666;2023-05-27T10:37:02;2.65;;;0.80;;
56429;SDS011;42332;52.136;20.666;2023-05-27T10:39:28;7.50;;;1.13;;
56429;SDS011;42332;52.136;20.666;2023-05-27T10:41:54;4.00;;;0.98;;
56429;SDS011;42332;52.136;20.666;2023-05-27T10:44:31;3.97;;;1.00;;
56429;SDS011;42332;52.136;20.666;2023-05-27T10:47:02;4.55;;;0.90;;
56429;SDS011;42332;52.136;20.666;2023-05-27T10:49:28;6.65;;;1.00;;
56429;SDS011;42332;52.136;20.666;2023-05-27T10:52:04;2.58;;;0.68;;
56429;SDS011;42332;52.136;20.666;2023-05-27T10:54:35;5.50;;;1.27;;
56429;SDS011;42332;52.136;20.666;2023-05-27T10:57:01;2.97;;;0.95;;
56429;SDS011;42332;52.136;20.666;2023-05-27T10:59:28;5.45;;;0.90;;
56429;SDS011;42332;52.136;20.666;2023-05-27T11:02:01;2.85;;;1.00;;
56429;SDS011;42332;52.136;20.666;2023-05-27T11:04:33;4.97;;;1.00;;
56429;SDS011;42332;52.136;20.666;2023-05-27T11:07:02;2.83;;;1.08;;
56429;SDS011;42332;52.136;20.666;2023-05-27T11:09:28;4.00;;;0.98;;
56429;SDS011;42332;52.136;20.666;2023-05-27T11:11:55;3.15;;;1.10;;
56429;SDS011;42332;52.136;20.666;2023-05-27T11:14:20;6.15;;;1.13;;
56429;SDS011;42332;52.136;20.666;2023-05-27T11:16:47;2.35;;;0.90;;
56429;SDS011;42332;52.136;20.666;2023-05-27T11:19:13;2.90;;;0.90;;
56429;SDS011;42332;52.136;20.666;2023-05-27T11:21:45;3.92;;;1.10;;
56429;SDS011;42332;52.136;20.666;2023-05-27T11:24:14;2.78;;;0.80;;
56429;SDS011;42332;52.136;20.666;2023-05-27T11:26:43;5.38;;;1.50;;
56429;SDS011;42332;52.136;20.666;2023-05-27T11:29:13;3.22;;;1.10;;
56429;SDS011;42332;52.136;20.666;2023-05-27T11:31:39;6.78;;;1.17;;
56429;SDS011;42332;52.136;20.666;2023-05-27T11:34:11;8.88;;;0.98;;
56429;SDS011;42332;52.136;20.666;2023-05-27T11:36:40;2.10;;;0.90;;
56429;SDS011;42332;52.136;20.666;2023-05-27T11:39:09;3.85;;;1.20;;
56429;SDS011;42332;52.136;20.666;2023-05-27T11:41:46;8.85;;;1.30;;
56429;SDS011;42332;52.136;20.666;2023-05-27T11:44:13;4.32;;;1.27;;
56429;SDS011;42332;52.136;20.666;2023-05-27T11:46:40;5.88;;;1.13;;
56429;SDS011;42332;52.136;20.666;2023-05-27T11:49:08;3.35;;;1.10;;
56429;SDS011;42332;52.136;20.666;2023-05-27T11:51:42;6.15;;;1.20;;
56429;SDS011;42332;52.136;20.666;2023-05-27T11:54:41;6.88;;;1.20;;
56429;SDS011;42332;52.136;20.666;2023-05-27T11:57:00;3.55;;;1.20;;
56429;SDS011;42332;52.136;20.666;2023-05-27T11:59:25;11.40;;;1.60;;
56429;SDS011;42332;52.136;20.666;2023-05-27T12:01:51;3.60;;;1.25;;
56429;SDS011;42332;52.136;20.666;2023-05-27T12:04:18;5.35;;;1.52;;
56429;SDS011;42332;52.136;20.666;2023-05-27T12:06:44;3.33;;;1.05;;
56429;SDS011;42332;52.136;20.666;2023-05-27T12:09:10;4.63;;;1.92;;
56429;SDS011;42332;52.136;20.666;2023-05-27T12:11:36;4.07;;;1.40;;
56429;SDS011;42332;52.136;20.666;2023-05-27T12:14:02;3.38;;;1.00;;
56429;SDS011;42332;52.136;20.666;2023-05-27T12:16:27;5.60;;;1.30;;
56429;SDS011;42332;52.136;20.666;2023-05-27T12:18:53;3.25;;;1.13;;
56429;SDS011;42332;52.136;20.666;2023-05-27T12:21:19;7.50;;;1.17;;
56429;SDS011;42332;52.136;20.666;2023-05-27T12:23:45;5.75;;;1.08;;
56429;SDS011;42332;52.136;20.666;2023-05-27T12:26:11;4.80;;;1.25;;
56429;SDS011;42332;52.136;20.666;2023-05-27T12:28:38;14.07;;;2.03;;
56429;SDS011;42332;52.136;20.666;2023-05-27T12:31:03;11.32;;;1.40;;
56429;SDS011;42332;52.136;20.666;2023-05-27T12:33:29;5.05;;;1.40;;
56429;SDS011;42332;52.136;20.666;2023-05-27T12:35:55;5.10;;;1.38;;
56429;SDS011;42332;52.136;20.666;2023-05-27T12:38:21;5.35;;;1.33;;
56429;SDS011;42332;52.136;20.666;2023-05-27T12:40:47;4.07;;;1.30;;
56429;SDS011;42332;52.136;20.666;2023-05-27T12:43:13;2.15;;;0.93;;
56429;SDS011;42332;52.136;20.666;2023-05-27T12:45:39;4.07;;;0.90;;
56429;SDS011;42332;52.136;20.666;2023-05-27T12:48:04;2.92;;;1.10;;
56429;SDS011;42332;52.136;20.666;2023-05-27T12:50:30;2.83;;;1.02;;
56429;SDS011;42332;52.136;20.666;2023-05-27T12:52:56;5.43;;;1.17;;
56429;SDS011;42332;52.136;20.666;2023-05-27T12:55:22;4.47;;;1.30;;
56429;SDS011;42332;52.136;20.666;2023-05-27T12:57:49;5.07;;;1.00;;
56429;SDS011;42332;52.136;20.666;2023-05-27T13:00:15;6.28;;;1.30;;
56429;SDS011;42332;52.136;20.666;2023-05-27T13:02:41;3.50;;;1.45;;
56429;SDS011;42332;52.136;20.666;2023-05-27T13:05:08;9.77;;;1.50;;
56429;SDS011;42332;52.136;20.666;2023-05-27T13:07:34;3.22;;;1.10;;
56429;SDS011;42332;52.136;20.666;2023-05-27T13:10:00;3.20;;;1.05;;
56429;SDS011;42332;52.136;20.666;2023-05-27T13:12:27;2.75;;;1.00;;
56429;SDS011;42332;52.136;20.666;2023-05-27T13:14:53;2.70;;;0.90;;
56429;SDS011;42332;52.136;20.666;2023-05-27T13:17:19;6.90;;;1.30;;
56429;SDS011;42332;52.136;20.666;2023-05-27T13:19:44;8.00;;;1.30;;
56429;SDS011;42332;52.136;20.666;2023-05-27T13:22:10;4.28;;;1.00;;
56429;SDS011;42332;52.136;20.666;2023-05-27T13:24:35;8.80;;;1.38;;
56429;SDS011;42332;52.136;20.666;2023-05-27T13:27:01;5.32;;;1.23;;
56429;SDS011;42332;52.136;20.666;2023-05-27T13:29:28;4.72;;;0.90;;
56429;SDS011;42332;52.136;20.666;2023-05-27T13:31:53;3.83;;;0.98;;
56429;SDS011;42332;52.136;20.666;2023-05-27T13:34:19;3.78;;;1.10;;
56429;SDS011;42332;52.136;20.666;2023-05-27T13:36:44;4.43;;;0.90;;
56429;SDS011;42332;52.136;20.666;2023-05-27T13:39:09;3.60;;;1.00;;
56429;SDS011;42332;52.136;20.666;2023-05-27T13:41:35;4.40;;;1.10;;
56429;SDS011;42332;52.136;20.666;2023-05-27T13:44:01;2.67;;;1.00;;
56429;SDS011;42332;52.136;20.666;2023-05-27T13:46:26;5.22;;;1.00;;
56429;SDS011;42332;52.136;20.666;2023-05-27T13:48:51;4.80;;;1.48;;
56429;SDS011;42332;52.136;20.666;2023-05-27T13:51:17;4.85;;;0.95;;
56429;SDS011;42332;52.136;20.666;2023-05-27T13:53:42;4.22;;;1.50;;
56429;SDS011;42332;52.136;20.666;2023-05-27T13:56:08;4.68;;;1.38;;
56429;SDS011;42332;52.136;20.666;2023-05-27T13:58:33;10.95;;;1.50;;
56429;SDS011;42332;52.136;20.666;2023-05-27T14:00:58;3.83;;;1.10;;
56429;SDS011;42332;52.136;20.666;2023-05-27T14:03:24;9.77;;;1.15;;
56429;SDS011;42332;52.136;20.666;2023-05-27T14:05:49;3.67;;;0.90;;
56429;SDS011;42332;52.136;20.666;2023-05-27T14:08:15;3.25;;;1.10;;
56429;SDS011;42332;52.136;20.666;2023-05-27T14:10:41;4.03;;;1.10;;
56429;SDS011;42332;52.136;20.666;2023-05-27T14:13:06;4.82;;;0.88;;
56429;SDS011;42332;52.136;20.666;2023-05-27T14:15:32;3.75;;;1.00;;
56429;SDS011;42332;52.136;20.666;2023-05-27T14:17:57;6.50;;;1.00;;
56429;SDS011;42332;52.136;20.666;2023-05-27T14:20:25;3.13;;;1.00;;
56429;SDS011;42332;52.136;20.666;2023-05-27T14:22:51;4.13;;;0.93;;
56429;SDS011;42332;52.136;20.666;2023-05-27T14:25:16;4.50;;;1.10;;
56429;SDS011;42332;52.136;20.666;2023-05-27T14:27:42;5.47;;;1.30;;
56429;SDS011;42332;52.136;20.666;2023-05-27T14:30:07;3.40;;;1.08;;
56429;SDS011;42332;52.136;20.666;2023-05-27T14:32:33;4.85;;;1.15;;
56429;SDS011;42332;52.136;20.666;2023-05-27T14:34:58;3.75;;;0.90;;
56429;SDS011;42332;52.136;20.666;2023-05-27T14:37:23;3.90;;;1.02;;
56429;SDS011;42332;52.136;20.666;2023-05-27T14:39:52;6.90;;;1.33;;
56429;SDS011;42332;52.136;20.666;2023-05-27T14:42:17;2.97;;;0.90;;
56429;SDS011;42332;52.136;20.666;2023-05-27T14:44:43;4.03;;;1.00;;